sensor_id;sensor_type;location;lat;lon;timestamp;P1;durP1;ratioP1;P2;durP2;ratioP2
57635;SDS011;43465;50.728;4.160;2022-08-03T00:01:16;7.00;;;1.80;;
57635;SDS011;43465;50.728;4.160;2022-08-03T00:03:42;7.10;;;1.67;;
57635;SDS011;43465;50.728;4.160;2022-08-03T00:06:08;5.43;;;2.00;;
57635;SDS011;43465;50.728;4.160;2022-08-03T00:08:33;5.50;;;1.83;;
57635;SDS011;43465;50.728;4.160;2022-08-03T00:10:59;7.97;;;1.70;;
57635;SDS011;43465;50.728;4.160;2022-08-03T00:13:25;3.88;;;1.70;;
57635;SDS011;43465;50.728;4.160;2022-08-03T00:15:50;4.65;;;1.67;;
57635;SDS011;43465;50.728;4.160;2022-08-03T00:18:16;4.18;;;2.30;;
57635;SDS011;43465;50.728;4.160;2022-08-03T00:20:42;7.40;;;1.85;;
57635;SDS011;43465;50.728;4.160;2022-08-03T00:23:08;4.22;;;2.03;;
57635;SDS011;43465;50.728;4.160;2022-08-03T00:25:34;5.60;;;1.73;;
57635;SDS011;43465;50.728;4.160;2022-08-03T00:28:00;8.38;;;2.30;;
57635;SDS011;43465;50.728;4.160;2022-08-03T00:30:27;5.30;;;1.60;;
57635;SDS011;43465;50.728;4.160;2022-08-03T00:32:53;6.30;;;1.90;;
57635;SDS011;43465;50.728;4.160;2022-08-03T00:35:19;5.80;;;2.05;;
57635;SDS011;43465;50.728;4.160;2022-08-03T00:37:45;2.80;;;1.80;;
57635;SDS011;43465;50.728;4.160;2022-08-03T00:40:11;5.85;;;2.10;;
57635;SDS011;43465;50.728;4.160;2022-08-03T00:42:48;8.68;;;2.10;;
57635;SDS011;43465;50.728;4.160;2022-08-03T00:45:15;6.75;;;2.00;;
57635;SDS011;43465;50.728;4.160;2022-08-03T00:47:41;8.27;;;2.03;;
57635;SDS011;43465;50.728;4.160;2022-08-03T00:50:08;8.65;;;2.00;;
57635;SDS011;43465;50.728;4.160;2022-08-03T00:52:34;6.95;;;2.00;;
57635;SDS011;43465;50.728;4.160;2022-08-03T00:55:00;8.00;;;2.28;;
57635;SDS011;43465;50.728;4.160;2022-08-03T00:57:27;4.15;;;1.63;;
57635;SDS011;43465;50.728;4.160;2022-08-03T00:59:55;6.47;;;1.73;;
57635;SDS011;43465;50.728;4.160;2022-08-03T01:02:21;4.53;;;1.95;;
57635;SDS011;43465;50.728;4.160;2022-08-03T01:04:47;7.93;;;2.08;;
57635;SDS011;43465;50.728;4.160;2022-08-03T01:09:54;4.68;;;1.88;;
57635;SDS011;43465;50.728;4.160;2022-08-03T01:18:13;4.10;;;2.00;;
57635;SDS011;43465;50.728;4.160;2022-08-03T01:20:46;5.95;;;2.20;;
57635;SDS011;43465;50.728;4.160;2022-08-03T01:31:42;2.95;;;2.10;;
57635;SDS011;43465;50.728;4.160;2022-08-03T01:34:13;4.90;;;2.10;;
57635;SDS011;43465;50.728;4.160;2022-08-03T01:36:47;6.68;;;1.80;;
57635;SDS011;43465;50.728;4.160;2022-08-03T01:39:16;4.20;;;1.98;;
57635;SDS011;43465;50.728;4.160;2022-08-03T01:41:45;5.15;;;2.10;;
57635;SDS011;43465;50.728;4.160;2022-08-03T01:44:14;5.22;;;2.03;;
57635;SDS011;43465;50.728;4.160;2022-08-03T01:46:41;6.35;;;2.08;;
57635;SDS011;43465;50.728;4.160;2022-08-03T01:49:08;6.20;;;2.08;;
57635;SDS011;43465;50.728;4.160;2022-08-03T01:51:37;6.72;;;2.13;;
57635;SDS011;43465;50.728;4.160;2022-08-03T01:54:05;7.32;;;2.28;;
57635;SDS011;43465;50.728;4.160;2022-08-03T01:56:33;5.97;;;2.50;;
57635;SDS011;43465;50.728;4.160;2022-08-03T01:59:00;4.60;;;1.85;;
57635;SDS011;43465;50.728;4.160;2022-08-03T02:01:27;5.55;;;2.38;;
57635;SDS011;43465;50.728;4.160;2022-08-03T02:03:55;9.07;;;2.38;;
57635;SDS011;43465;50.728;4.160;2022-08-03T02:06:23;11.10;;;2.53;;
57635;SDS011;43465;50.728;4.160;2022-08-03T02:08:51;8.18;;;2.38;;
57635;SDS011;43465;50.728;4.160;2022-08-03T02:11:17;6.50;;;2.30;;
57635;SDS011;43465;50.728;4.160;2022-08-03T02:13:43;5.93;;;2.42;;
57635;SDS011;43465;50.728;4.160;2022-08-03T02:16:11;6.50;;;2.55;;
57635;SDS011;43465;50.728;4.160;2022-08-03T02:18:39;4.72;;;2.08;;
57635;SDS011;43465;50.728;4.160;2022-08-03T02:21:06;3.63;;;1.90;;
57635;SDS011;43465;50.728;4.160;2022-08-03T02:23:34;3.58;;;2.00;;
57635;SDS011;43465;50.728;4.160;2022-08-03T02:26:02;3.05;;;1.73;;
57635;SDS011;43465;50.728;4.160;2022-08-03T02:28:34;5.43;;;2.42;;
57635;SDS011;43465;50.728;4.160;2022-08-03T02:31:06;2.38;;;2.03;;
57635;SDS011;43465;50.728;4.160;2022-08-03T02:33:38;4.95;;;2.38;;
57635;SDS011;43465;50.728;4.160;2022-08-03T02:36:07;5.00;;;2.28;;
57635;SDS011;43465;50.728;4.160;2022-08-03T02:38:35;7.53;;;2.10;;
57635;SDS011;43465;50.728;4.160;2022-08-03T02:41:06;7.20;;;2.40;;
57635;SDS011;43465;50.728;4.160;2022-08-03T02:43:37;8.63;;;2.80;;
57635;SDS011;43465;50.728;4.160;2022-08-03T02:46:05;6.72;;;2.33;;
57635;SDS011;43465;50.728;4.160;2022-08-03T02:48:33;7.18;;;2.60;;
57635;SDS011;43465;50.728;4.160;2022-08-03T02:51:02;7.30;;;2.38;;
57635;SDS011;43465;50.728;4.160;2022-08-03T02:53:29;4.32;;;2.67;;
57635;SDS011;43465;50.728;4.160;2022-08-03T02:55:55;7.40;;;2.33;;
57635;SDS011;43465;50.728;4.160;2022-08-03T02:58:23;5.70;;;2.40;;
57635;SDS011;43465;50.728;4.160;2022-08-03T03:00:49;5.93;;;2.45;;
57635;SDS011;43465;50.728;4.160;2022-08-03T03:03:16;8.15;;;2.70;;
57635;SDS011;43465;50.728;4.160;2022-08-03T03:05:42;9.70;;;2.53;;
57635;SDS011;43465;50.728;4.160;2022-08-03T03:08:11;7.40;;;2.58;;
57635;SDS011;43465;50.728;4.160;2022-08-03T03:10:38;7.97;;;2.95;;
57635;SDS011;43465;50.728;4.160;2022-08-03T03:13:05;8.63;;;2.60;;
57635;SDS011;43465;50.728;4.160;2022-08-03T03:15:31;9.10;;;2.63;;
57635;SDS011;43465;50.728;4.160;2022-08-03T03:18:00;7.13;;;2.60;;
57635;SDS011;43465;50.728;4.160;2022-08-03T03:20:26;6.38;;;2.20;;
57635;SDS011;43465;50.728;4.160;2022-08-03T03:22:53;9.98;;;2.97;;
57635;SDS011;43465;50.728;4.160;2022-08-03T03:25:19;13.68;;;2.80;;
57635;SDS011;43465;50.728;4.160;2022-08-03T03:27:45;7.18;;;2.60;;
57635;SDS011;43465;50.728;4.160;2022-08-03T03:30:12;11.13;;;2.75;;
57635;SDS011;43465;50.728;4.160;2022-08-03T03:32:38;8.73;;;2.53;;
57635;SDS011;43465;50.728;4.160;2022-08-03T03:35:05;10.05;;;2.85;;
57635;SDS011;43465;50.728;4.160;2022-08-03T03:37:32;7.13;;;2.80;;
57635;SDS011;43465;50.728;4.160;2022-08-03T03:39:58;5.72;;;2.35;;
57635;SDS011;43465;50.728;4.160;2022-08-03T03:42:24;8.85;;;2.78;;
57635;SDS011;43465;50.728;4.160;2022-08-03T03:44:50;10.82;;;2.58;;
57635;SDS011;43465;50.728;4.160;2022-08-03T03:47:16;14.88;;;2.80;;
57635;SDS011;43465;50.728;4.160;2022-08-03T03:49:42;7.50;;;2.60;;
57635;SDS011;43465;50.728;4.160;2022-08-03T03:52:08;4.13;;;2.25;;
57635;SDS011;43465;50.728;4.160;2022-08-03T03:54:43;7.72;;;2.40;;
57635;SDS011;43465;50.728;4.160;2022-08-03T03:57:09;5.55;;;2.60;;
57635;SDS011;43465;50.728;4.160;2022-08-03T03:59:36;153.40;;;13.00;;
57635;SDS011;43465;50.728;4.160;2022-08-03T04:02:03;177.40;;;13.57;;
57635;SDS011;43465;50.728;4.160;2022-08-03T04:04:30;110.50;;;9.68;;
57635;SDS011;43465;50.728;4.160;2022-08-03T04:07:16;66.55;;;6.28;;
57635;SDS011;43465;50.728;4.160;2022-08-03T04:10:01;41.53;;;4.68;;
57635;SDS011;43465;50.728;4.160;2022-08-03T04:12:48;55.83;;;5.53;;
57635;SDS011;43465;50.728;4.160;2022-08-03T04:15:17;42.65;;;4.80;;
57635;SDS011;43465;50.728;4.160;2022-08-03T04:17:46;35.88;;;5.10;;
57635;SDS011;43465;50.728;4.160;2022-08-03T04:20:15;17.45;;;3.47;;
57635;SDS011;43465;50.728;4.160;2022-08-03T04:22:47;10.10;;;3.13;;
57635;SDS011;43465;50.728;4.160;2022-08-03T04:25:15;15.82;;;3.05;;
57635;SDS011;43465;50.728;4.160;2022-08-03T04:27:43;7.95;;;3.25;;
57635;SDS011;43465;50.728;4.160;2022-08-03T04:30:11;10.40;;;2.75;;
57635;SDS011;43465;50.728;4.160;2022-08-03T04:32:38;11.10;;;2.78;;
57635;SDS011;43465;50.728;4.160;2022-08-03T04:35:06;16.63;;;3.00;;
57635;SDS011;43465;50.728;4.160;2022-08-03T04:37:40;13.88;;;2.97;;
57635;SDS011;43465;50.728;4.160;2022-08-03T04:40:09;8.40;;;3.03;;
57635;SDS011;43465;50.728;4.160;2022-08-03T04:42:38;14.15;;;3.53;;
57635;SDS011;43465;50.728;4.160;2022-08-03T04:45:06;13.05;;;3.22;;
57635;SDS011;43465;50.728;4.160;2022-08-03T04:47:35;7.72;;;2.97;;
57635;SDS011;43465;50.728;4.160;2022-08-03T04:50:03;7.75;;;3.33;;
57635;SDS011;43465;50.728;4.160;2022-08-03T04:52:30;9.57;;;3.28;;
57635;SDS011;43465;50.728;4.160;2022-08-03T04:54:57;8.93;;;3.40;;
57635;SDS011;43465;50.728;4.160;2022-08-03T04:57:22;11.10;;;3.35;;
57635;SDS011;43465;50.728;4.160;2022-08-03T04:59:48;8.70;;;3.42;;
57635;SDS011;43465;50.728;4.160;2022-08-03T05:02:20;7.38;;;2.92;;
57635;SDS011;43465;50.728;4.160;2022-08-03T05:04:46;6.38;;;3.10;;
57635;SDS011;43465;50.728;4.160;2022-08-03T05:07:13;8.50;;;3.13;;
57635;SDS011;43465;50.728;4.160;2022-08-03T05:09:39;7.45;;;3.10;;
57635;SDS011;43465;50.728;4.160;2022-08-03T05:12:05;9.52;;;3.08;;
57635;SDS011;43465;50.728;4.160;2022-08-03T05:14:32;8.07;;;3.53;;
57635;SDS011;43465;50.728;4.160;2022-08-03T05:16:58;12.98;;;3.58;;
57635;SDS011;43465;50.728;4.160;2022-08-03T05:19:24;7.82;;;3.20;;
57635;SDS011;43465;50.728;4.160;2022-08-03T05:21:50;10.48;;;4.05;;
57635;SDS011;43465;50.728;4.160;2022-08-03T05:24:15;9.20;;;3.90;;
57635;SDS011;43465;50.728;4.160;2022-08-03T05:26:41;8.25;;;3.30;;
57635;SDS011;43465;50.728;4.160;2022-08-03T05:29:07;40.05;;;5.38;;
57635;SDS011;43465;50.728;4.160;2022-08-03T05:31:32;18.67;;;3.95;;
57635;SDS011;43465;50.728;4.160;2022-08-03T05:33:58;29.60;;;4.55;;
57635;SDS011;43465;50.728;4.160;2022-08-03T05:36:24;18.40;;;3.72;;
57635;SDS011;43465;50.728;4.160;2022-08-03T05:38:49;7.97;;;3.53;;
57635;SDS011;43465;50.728;4.160;2022-08-03T05:41:15;6.35;;;3.50;;
57635;SDS011;43465;50.728;4.160;2022-08-03T05:43:41;7.72;;;3.08;;
57635;SDS011;43465;50.728;4.160;2022-08-03T05:46:06;11.50;;;3.28;;
57635;SDS011;43465;50.728;4.160;2022-08-03T05:48:32;23.60;;;4.57;;
57635;SDS011;43465;50.728;4.160;2022-08-03T05:50:58;26.20;;;4.60;;
57635;SDS011;43465;50.728;4.160;2022-08-03T05:53:23;18.80;;;3.67;;
57635;SDS011;43465;50.728;4.160;2022-08-03T05:55:50;13.98;;;3.88;;
57635;SDS011;43465;50.728;4.160;2022-08-03T05:58:16;9.82;;;3.55;;
57635;SDS011;43465;50.728;4.160;2022-08-03T06:00:41;7.82;;;3.42;;
57635;SDS011;43465;50.728;4.160;2022-08-03T06:03:07;9.38;;;3.20;;
57635;SDS011;43465;50.728;4.160;2022-08-03T06:05:33;12.60;;;3.47;;
57635;SDS011;43465;50.728;4.160;2022-08-03T06:08:00;11.27;;;3.60;;
57635;SDS011;43465;50.728;4.160;2022-08-03T06:10:27;21.00;;;3.40;;
57635;SDS011;43465;50.728;4.160;2022-08-03T06:12:52;13.07;;;3.47;;
57635;SDS011;43465;50.728;4.160;2022-08-03T06:15:18;16.83;;;4.00;;
57635;SDS011;43465;50.728;4.160;2022-08-03T06:17:44;10.25;;;3.55;;
57635;SDS011;43465;50.728;4.160;2022-08-03T06:20:17;16.55;;;3.70;;
57635;SDS011;43465;50.728;4.160;2022-08-03T06:22:44;15.00;;;3.42;;
57635;SDS011;43465;50.728;4.160;2022-08-03T06:25:10;14.73;;;4.13;;
57635;SDS011;43465;50.728;4.160;2022-08-03T06:27:36;16.95;;;3.75;;
57635;SDS011;43465;50.728;4.160;2022-08-03T06:30:07;14.32;;;3.50;;
57635;SDS011;43465;50.728;4.160;2022-08-03T06:32:37;10.63;;;3.35;;
57635;SDS011;43465;50.728;4.160;2022-08-03T06:35:06;11.15;;;3.40;;
57635;SDS011;43465;50.728;4.160;2022-08-03T06:37:45;12.73;;;3.42;;
57635;SDS011;43465;50.728;4.160;2022-08-03T06:40:13;17.20;;;3.30;;
57635;SDS011;43465;50.728;4.160;2022-08-03T06:42:40;16.25;;;3.08;;
57635;SDS011;43465;50.728;4.160;2022-08-03T06:45:06;23.88;;;3.58;;
57635;SDS011;43465;50.728;4.160;2022-08-03T06:47:40;24.88;;;3.15;;
57635;SDS011;43465;50.728;4.160;2022-08-03T06:50:06;17.67;;;2.70;;
57635;SDS011;43465;50.728;4.160;2022-08-03T06:52:33;23.50;;;3.70;;
57635;SDS011;43465;50.728;4.160;2022-08-03T06:54:58;14.07;;;2.80;;
57635;SDS011;43465;50.728;4.160;2022-08-03T06:57:24;24.48;;;4.03;;
57635;SDS011;43465;50.728;4.160;2022-08-03T06:59:50;22.25;;;3.28;;
57635;SDS011;43465;50.728;4.160;2022-08-03T07:02:16;26.00;;;3.40;;
57635;SDS011;43465;50.728;4.160;2022-08-03T07:04:45;20.42;;;3.20;;
57635;SDS011;43465;50.728;4.160;2022-08-03T07:07:11;26.52;;;2.90;;
57635;SDS011;43465;50.728;4.160;2022-08-03T07:09:37;14.52;;;2.33;;
57635;SDS011;43465;50.728;4.160;2022-08-03T07:12:03;18.40;;;2.35;;
57635;SDS011;43465;50.728;4.160;2022-08-03T07:14:30;21.35;;;2.28;;
57635;SDS011;43465;50.728;4.160;2022-08-03T07:16:56;13.57;;;2.65;;
57635;SDS011;43465;50.728;4.160;2022-08-03T07:19:21;10.18;;;2.15;;
57635;SDS011;43465;50.728;4.160;2022-08-03T07:21:47;8.40;;;1.58;;
57635;SDS011;43465;50.728;4.160;2022-08-03T07:24:13;6.53;;;1.70;;
57635;SDS011;43465;50.728;4.160;2022-08-03T07:26:38;5.50;;;1.70;;
57635;SDS011;43465;50.728;4.160;2022-08-03T07:29:04;4.72;;;1.60;;
57635;SDS011;43465;50.728;4.160;2022-08-03T07:31:29;7.00;;;1.95;;
57635;SDS011;43465;50.728;4.160;2022-08-03T07:33:55;6.90;;;1.63;;
57635;SDS011;43465;50.728;4.160;2022-08-03T07:36:21;7.80;;;1.60;;
57635;SDS011;43465;50.728;4.160;2022-08-03T07:38:47;6.68;;;1.85;;
57635;SDS011;43465;50.728;4.160;2022-08-03T07:41:12;7.50;;;1.48;;
57635;SDS011;43465;50.728;4.160;2022-08-03T07:43:38;6.53;;;1.77;;
57635;SDS011;43465;50.728;4.160;2022-08-03T07:46:03;8.13;;;1.67;;
57635;SDS011;43465;50.728;4.160;2022-08-03T07:48:29;5.00;;;1.65;;
57635;SDS011;43465;50.728;4.160;2022-08-03T07:50:55;5.45;;;1.40;;
57635;SDS011;43465;50.728;4.160;2022-08-03T07:53:20;11.95;;;1.42;;
57635;SDS011;43465;50.728;4.160;2022-08-03T07:55:46;10.43;;;1.58;;
57635;SDS011;43465;50.728;4.160;2022-08-03T07:58:11;6.93;;;1.83;;
57635;SDS011;43465;50.728;4.160;2022-08-03T08:00:41;5.57;;;1.25;;
57635;SDS011;43465;50.728;4.160;2022-08-03T08:03:08;8.10;;;1.63;;
57635;SDS011;43465;50.728;4.160;2022-08-03T08:05:35;9.63;;;1.73;;
57635;SDS011;43465;50.728;4.160;2022-08-03T08:08:01;7.13;;;1.55;;
57635;SDS011;43465;50.728;4.160;2022-08-03T08:10:28;8.98;;;2.00;;
57635;SDS011;43465;50.728;4.160;2022-08-03T08:12:54;11.60;;;1.98;;
57635;SDS011;43465;50.728;4.160;2022-08-03T08:15:20;13.18;;;2.10;;
57635;SDS011;43465;50.728;4.160;2022-08-03T08:17:51;15.10;;;1.90;;
57635;SDS011;43465;50.728;4.160;2022-08-03T08:20:19;8.52;;;1.52;;
57635;SDS011;43465;50.728;4.160;2022-08-03T08:22:46;10.43;;;1.88;;
57635;SDS011;43465;50.728;4.160;2022-08-03T08:25:13;14.25;;;2.20;;
57635;SDS011;43465;50.728;4.160;2022-08-03T08:30:12;8.98;;;1.67;;
57635;SDS011;43465;50.728;4.160;2022-08-03T08:32:38;12.20;;;1.92;;
57635;SDS011;43465;50.728;4.160;2022-08-03T08:35:05;15.38;;;2.08;;
57635;SDS011;43465;50.728;4.160;2022-08-03T08:37:31;12.20;;;1.98;;
57635;SDS011;43465;50.728;4.160;2022-08-03T08:39:57;18.02;;;2.20;;
57635;SDS011;43465;50.728;4.160;2022-08-03T08:42:23;12.32;;;1.70;;
57635;SDS011;43465;50.728;4.160;2022-08-03T08:44:49;17.13;;;2.10;;
57635;SDS011;43465;50.728;4.160;2022-08-03T08:47:15;14.63;;;1.70;;
57635;SDS011;43465;50.728;4.160;2022-08-03T08:49:43;12.13;;;1.95;;
57635;SDS011;43465;50.728;4.160;2022-08-03T08:52:12;9.52;;;1.70;;
57635;SDS011;43465;50.728;4.160;2022-08-03T08:54:40;11.90;;;2.05;;
57635;SDS011;43465;50.728;4.160;2022-08-03T08:57:08;10.23;;;1.50;;
57635;SDS011;43465;50.728;4.160;2022-08-03T08:59:35;15.18;;;1.88;;
57635;SDS011;43465;50.728;4.160;2022-08-03T09:02:01;13.95;;;1.65;;
57635;SDS011;43465;50.728;4.160;2022-08-03T09:04:28;8.85;;;1.52;;
57635;SDS011;43465;50.728;4.160;2022-08-03T09:06:54;15.25;;;2.13;;
57635;SDS011;43465;50.728;4.160;2022-08-03T09:09:20;14.38;;;2.20;;
57635;SDS011;43465;50.728;4.160;2022-08-03T09:11:49;9.18;;;1.75;;
57635;SDS011;43465;50.728;4.160;2022-08-03T09:14:15;10.15;;;1.90;;
57635;SDS011;43465;50.728;4.160;2022-08-03T09:16:56;9.52;;;1.58;;
57635;SDS011;43465;50.728;4.160;2022-08-03T09:19:24;15.82;;;1.70;;
57635;SDS011;43465;50.728;4.160;2022-08-03T09:22:05;9.82;;;1.58;;
57635;SDS011;43465;50.728;4.160;2022-08-03T09:24:32;10.30;;;1.70;;
57635;SDS011;43465;50.728;4.160;2022-08-03T09:26:57;12.75;;;1.58;;
57635;SDS011;43465;50.728;4.160;2022-08-03T09:29:23;7.20;;;1.13;;
57635;SDS011;43465;50.728;4.160;2022-08-03T09:31:49;9.98;;;1.42;;
57635;SDS011;43465;50.728;4.160;2022-08-03T09:34:28;6.15;;;1.27;;
57635;SDS011;43465;50.728;4.160;2022-08-03T09:36:54;8.07;;;1.60;;
57635;SDS011;43465;50.728;4.160;2022-08-03T09:39:23;16.15;;;1.67;;
57635;SDS011;43465;50.728;4.160;2022-08-03T09:44:54;11.68;;;1.70;;
57635;SDS011;43465;50.728;4.160;2022-08-03T09:47:26;6.70;;;1.27;;
57635;SDS011;43465;50.728;4.160;2022-08-03T09:50:04;12.57;;;1.70;;
57635;SDS011;43465;50.728;4.160;2022-08-03T09:52:35;4.75;;;1.30;;
57635;SDS011;43465;50.728;4.160;2022-08-03T09:55:13;6.63;;;1.27;;
57635;SDS011;43465;50.728;4.160;2022-08-03T09:57:39;10.02;;;1.30;;
57635;SDS011;43465;50.728;4.160;2022-08-03T10:00:07;15.68;;;1.95;;
57635;SDS011;43465;50.728;4.160;2022-08-03T10:02:37;8.25;;;1.50;;
57635;SDS011;43465;50.728;4.160;2022-08-03T10:05:07;10.73;;;1.25;;
57635;SDS011;43465;50.728;4.160;2022-08-03T10:07:41;11.95;;;1.30;;
57635;SDS011;43465;50.728;4.160;2022-08-03T10:10:10;7.90;;;1.65;;
57635;SDS011;43465;50.728;4.160;2022-08-03T10:12:36;4.68;;;0.90;;
57635;SDS011;43465;50.728;4.160;2022-08-03T10:15:03;7.97;;;1.13;;
57635;SDS011;43465;50.728;4.160;2022-08-03T10:17:29;12.63;;;1.25;;
57635;SDS011;43465;50.728;4.160;2022-08-03T10:19:55;13.20;;;1.40;;
57635;SDS011;43465;50.728;4.160;2022-08-03T10:22:23;4.60;;;1.05;;
57635;SDS011;43465;50.728;4.160;2022-08-03T10:24:55;3.33;;;0.95;;
57635;SDS011;43465;50.728;4.160;2022-08-03T10:27:26;4.53;;;1.00;;
57635;SDS011;43465;50.728;4.160;2022-08-03T10:29:59;3.63;;;1.10;;
57635;SDS011;43465;50.728;4.160;2022-08-03T10:32:45;4.57;;;0.90;;
57635;SDS011;43465;50.728;4.160;2022-08-03T10:35:16;1.90;;;1.67;;
57635;SDS011;43465;50.728;4.160;2022-08-03T10:37:54;5.60;;;1.00;;
57635;SDS011;43465;50.728;4.160;2022-08-03T10:40:32;6.80;;;1.30;;
57635;SDS011;43465;50.728;4.160;2022-08-03T10:43:01;14.07;;;1.60;;
57635;SDS011;43465;50.728;4.160;2022-08-03T10:45:38;8.98;;;1.40;;
57635;SDS011;43465;50.728;4.160;2022-08-03T10:48:06;5.57;;;1.27;;
57635;SDS011;43465;50.728;4.160;2022-08-03T10:50:33;10.93;;;1.40;;
57635;SDS011;43465;50.728;4.160;2022-08-03T10:53:02;3.72;;;1.10;;
57635;SDS011;43465;50.728;4.160;2022-08-03T10:58:51;6.30;;;1.15;;
57635;SDS011;43465;50.728;4.160;2022-08-03T11:01:18;7.38;;;1.10;;
57635;SDS011;43465;50.728;4.160;2022-08-03T11:06:30;4.97;;;1.10;;
57635;SDS011;43465;50.728;4.160;2022-08-03T11:09:29;8.02;;;1.23;;
57635;SDS011;43465;50.728;4.160;2022-08-03T11:11:47;8.50;;;1.25;;
57635;SDS011;43465;50.728;4.160;2022-08-03T11:14:20;11.80;;;1.50;;
57635;SDS011;43465;50.728;4.160;2022-08-03T11:16:47;5.18;;;1.02;;
57635;SDS011;43465;50.728;4.160;2022-08-03T11:19:20;12.63;;;1.50;;
57635;SDS011;43465;50.728;4.160;2022-08-03T11:27:19;6.28;;;1.40;;
57635;SDS011;43465;50.728;4.160;2022-08-03T11:30:08;7.43;;;1.25;;
57635;SDS011;43465;50.728;4.160;2022-08-03T11:35:27;4.32;;;1.30;;
57635;SDS011;43465;50.728;4.160;2022-08-03T11:38:04;4.10;;;1.37;;
57635;SDS011;43465;50.728;4.160;2022-08-03T11:48:41;3.08;;;1.10;;
57635;SDS011;43465;50.728;4.160;2022-08-03T11:51:19;4.10;;;1.02;;
57635;SDS011;43465;50.728;4.160;2022-08-03T11:54:00;4.93;;;1.35;;
57635;SDS011;43465;50.728;4.160;2022-08-03T11:56:27;4.03;;;1.05;;
57635;SDS011;43465;50.728;4.160;2022-08-03T11:59:07;74.57;;;5.82;;
57635;SDS011;43465;50.728;4.160;2022-08-03T12:01:33;6.45;;;1.20;;
57635;SDS011;43465;50.728;4.160;2022-08-03T12:04:01;7.18;;;1.20;;
57635;SDS011;43465;50.728;4.160;2022-08-03T12:06:28;1.52;;;0.80;;
57635;SDS011;43465;50.728;4.160;2022-08-03T12:08:54;2.75;;;1.00;;
57635;SDS011;43465;50.728;4.160;2022-08-03T12:11:20;4.50;;;1.15;;
57635;SDS011;43465;50.728;4.160;2022-08-03T12:13:47;5.50;;;1.05;;
57635;SDS011;43465;50.728;4.160;2022-08-03T12:18:43;3.47;;;1.10;;
57635;SDS011;43465;50.728;4.160;2022-08-03T12:21:10;3.00;;;0.82;;
57635;SDS011;43465;50.728;4.160;2022-08-03T12:23:37;6.07;;;1.00;;
57635;SDS011;43465;50.728;4.160;2022-08-03T12:26:04;3.95;;;1.20;;
57635;SDS011;43465;50.728;4.160;2022-08-03T12:28:31;4.03;;;1.08;;
57635;SDS011;43465;50.728;4.160;2022-08-03T12:31:00;3.33;;;1.00;;
57635;SDS011;43465;50.728;4.160;2022-08-03T12:33:31;1.88;;;0.65;;
57635;SDS011;43465;50.728;4.160;2022-08-03T12:36:17;4.32;;;0.80;;
57635;SDS011;43465;50.728;4.160;2022-08-03T12:38:43;3.05;;;0.93;;
57635;SDS011;43465;50.728;4.160;2022-08-03T12:41:29;3.72;;;0.95;;
57635;SDS011;43465;50.728;4.160;2022-08-03T12:44:02;5.57;;;0.95;;
57635;SDS011;43465;50.728;4.160;2022-08-03T12:46:33;2.60;;;0.82;;
57635;SDS011;43465;50.728;4.160;2022-08-03T12:51:34;2.95;;;1.02;;
57635;SDS011;43465;50.728;4.160;2022-08-03T12:54:06;3.35;;;0.90;;
57635;SDS011;43465;50.728;4.160;2022-08-03T12:56:32;4.25;;;0.80;;
57635;SDS011;43465;50.728;4.160;2022-08-03T12:58:59;4.53;;;1.20;;
57635;SDS011;43465;50.728;4.160;2022-08-03T13:01:25;6.95;;;0.98;;
57635;SDS011;43465;50.728;4.160;2022-08-03T13:03:52;3.28;;;0.93;;
57635;SDS011;43465;50.728;4.160;2022-08-03T13:06:19;3.85;;;1.08;;
57635;SDS011;43465;50.728;4.160;2022-08-03T13:08:49;2.78;;;0.85;;
57635;SDS011;43465;50.728;4.160;2022-08-03T13:11:26;1.63;;;0.80;;
57635;SDS011;43465;50.728;4.160;2022-08-03T13:13:52;8.05;;;1.08;;
57635;SDS011;43465;50.728;4.160;2022-08-03T13:16:19;2.50;;;1.00;;
57635;SDS011;43465;50.728;4.160;2022-08-03T13:18:46;7.43;;;0.95;;
57635;SDS011;43465;50.728;4.160;2022-08-03T13:21:16;5.10;;;0.90;;
57635;SDS011;43465;50.728;4.160;2022-08-03T13:23:43;5.60;;;1.15;;
57635;SDS011;43465;50.728;4.160;2022-08-03T13:26:09;4.72;;;1.05;;
57635;SDS011;43465;50.728;4.160;2022-08-03T13:28:36;3.30;;;0.77;;
57635;SDS011;43465;50.728;4.160;2022-08-03T13:31:03;5.60;;;1.00;;
57635;SDS011;43465;50.728;4.160;2022-08-03T13:33:29;4.20;;;1.00;;
57635;SDS011;43465;50.728;4.160;2022-08-03T13:35:55;1.80;;;0.60;;
57635;SDS011;43465;50.728;4.160;2022-08-03T13:38:21;5.22;;;1.00;;
57635;SDS011;43465;50.728;4.160;2022-08-03T13:40:46;4.15;;;1.15;;
57635;SDS011;43465;50.728;4.160;2022-08-03T13:43:12;2.40;;;1.00;;
57635;SDS011;43465;50.728;4.160;2022-08-03T13:45:38;2.75;;;0.70;;
57635;SDS011;43465;50.728;4.160;2022-08-03T13:48:03;3.58;;;0.82;;
57635;SDS011;43465;50.728;4.160;2022-08-03T13:50:29;3.60;;;0.70;;
57635;SDS011;43465;50.728;4.160;2022-08-03T13:52:55;1.30;;;0.70;;
57635;SDS011;43465;50.728;4.160;2022-08-03T13:55:21;5.13;;;1.20;;
57635;SDS011;43465;50.728;4.160;2022-08-03T13:57:48;5.35;;;1.35;;
57635;SDS011;43465;50.728;4.160;2022-08-03T14:00:14;4.10;;;1.02;;
57635;SDS011;43465;50.728;4.160;2022-08-03T14:02:41;3.78;;;1.10;;
57635;SDS011;43465;50.728;4.160;2022-08-03T14:05:07;4.00;;;0.90;;
57635;SDS011;43465;50.728;4.160;2022-08-03T14:07:33;4.82;;;1.00;;
57635;SDS011;43465;50.728;4.160;2022-08-03T14:09:58;3.17;;;1.00;;
57635;SDS011;43465;50.728;4.160;2022-08-03T14:12:25;3.10;;;0.93;;
57635;SDS011;43465;50.728;4.160;2022-08-03T14:14:51;3.80;;;1.10;;
57635;SDS011;43465;50.728;4.160;2022-08-03T14:17:17;5.93;;;1.00;;
57635;SDS011;43465;50.728;4.160;2022-08-03T14:19:43;4.00;;;1.00;;
57635;SDS011;43465;50.728;4.160;2022-08-03T14:22:09;5.35;;;0.90;;
57635;SDS011;43465;50.728;4.160;2022-08-03T14:24:34;4.80;;;1.10;;
57635;SDS011;43465;50.728;4.160;2022-08-03T14:27:00;5.10;;;1.17;;
57635;SDS011;43465;50.728;4.160;2022-08-03T14:29:26;8.80;;;1.00;;
57635;SDS011;43465;50.728;4.160;2022-08-03T14:31:51;4.25;;;0.80;;
57635;SDS011;43465;50.728;4.160;2022-08-03T14:34:17;4.80;;;1.00;;
57635;SDS011;43465;50.728;4.160;2022-08-03T14:36:43;4.90;;;0.98;;
57635;SDS011;43465;50.728;4.160;2022-08-03T14:39:08;2.40;;;0.80;;
57635;SDS011;43465;50.728;4.160;2022-08-03T14:41:34;2.78;;;0.88;;
57635;SDS011;43465;50.728;4.160;2022-08-03T14:43:59;3.13;;;0.90;;
57635;SDS011;43465;50.728;4.160;2022-08-03T14:46:25;2.78;;;0.88;;
57635;SDS011;43465;50.728;4.160;2022-08-03T14:48:51;5.10;;;0.98;;
57635;SDS011;43465;50.728;4.160;2022-08-03T14:51:16;2.50;;;0.80;;
57635;SDS011;43465;50.728;4.160;2022-08-03T14:53:43;5.50;;;0.80;;
57635;SDS011;43465;50.728;4.160;2022-08-03T14:56:08;4.18;;;1.00;;
57635;SDS011;43465;50.728;4.160;2022-08-03T14:58:34;4.00;;;1.15;;
57635;SDS011;43465;50.728;4.160;2022-08-03T15:01:00;5.22;;;1.10;;
57635;SDS011;43465;50.728;4.160;2022-08-03T15:03:25;5.35;;;1.20;;
57635;SDS011;43465;50.728;4.160;2022-08-03T15:05:51;4.40;;;1.10;;
57635;SDS011;43465;50.728;4.160;2022-08-03T15:08:19;2.47;;;1.20;;
57635;SDS011;43465;50.728;4.160;2022-08-03T15:10:45;5.05;;;1.38;;
57635;SDS011;43465;50.728;4.160;2022-08-03T15:13:12;5.00;;;1.20;;
57635;SDS011;43465;50.728;4.160;2022-08-03T15:15:37;3.75;;;1.30;;
57635;SDS011;43465;50.728;4.160;2022-08-03T15:18:03;2.60;;;1.20;;
57635;SDS011;43465;50.728;4.160;2022-08-03T15:20:29;2.47;;;1.15;;
57635;SDS011;43465;50.728;4.160;2022-08-03T15:22:55;3.70;;;1.20;;
57635;SDS011;43465;50.728;4.160;2022-08-03T15:25:20;3.55;;;1.10;;
57635;SDS011;43465;50.728;4.160;2022-08-03T15:27:46;5.85;;;1.30;;
57635;SDS011;43465;50.728;4.160;2022-08-03T15:30:15;5.25;;;1.15;;
57635;SDS011;43465;50.728;4.160;2022-08-03T15:32:40;5.97;;;1.20;;
57635;SDS011;43465;50.728;4.160;2022-08-03T15:35:06;3.70;;;1.08;;
57635;SDS011;43465;50.728;4.160;2022-08-03T15:37:32;2.83;;;1.13;;